Time;durP1;ratioP1;P1;durP2;ratioP2;P2;SDS_P1;SDS_P2;PMS_P1;PMS_P2;Temp;Humidity;BMP_temperature;BMP_pressure;BME280_temperature;BME280_humidity;BME280_pressure;Samples;Min_cycle;Max_cycle;Signal;HPM_P1;HPM_P2
2022/03/07 00:00:59;;;;;;;17.80;11.18;;;;;;;;;;4952550;28;20051;-60
2022/03/07 00:03:26;;;;;;;17.48;12.13;;;;;;;;;;4952102;28;20059;-60
2022/03/07 00:05:53;;;;;;;18.80;11.38;;;;;;;;;;4953127;28;20062;-59
2022/03/07 00:08:20;;;;;;;16.30;11.25;;;;;;;;;;4953722;28;20449;-59
2022/03/07 00:10:49;;;;;;;16.25;10.48;;;;;;;;;;4954277;28;20055;-62
2022/03/07 00:13:16;;;;;;;19.50;12.20;;;;;;;;;;4953984;28;20051;-60
2022/03/07 00:15:43;;;;;;;17.92;11.57;;;;;;;;;;4951829;28;20408;-60
2022/03/07 00:18:10;;;;;;;18.95;11.25;;;;;;;;;;4953324;28;20075;-61
2022/03/07 00:20:37;;;;;;;17.13;11.35;;;;;;;;;;4954388;28;20047;-61
2022/03/07 00:23:04;;;;;;;18.58;11.48;;;;;;;;;;4953996;29;20051;-60
2022/03/07 00:25:31;;;;;;;18.42;11.43;;;;;;;;;;4953610;29;20062;-59
2022/03/07 00:27:59;;;;;;;17.05;11.13;;;;;;;;;;4953856;28;20512;-59
2022/03/07 00:30:26;;;;;;;17.58;11.10;;;;;;;;;;4953295;29;20055;-59
2022/03/07 00:32:53;;;;;;;17.65;11.52;;;;;;;;;;4953677;28;20416;-60
2022/03/07 00:35:20;;;;;;;16.20;11.00;;;;;;;;;;4954213;28;20051;-58
2022/03/07 00:37:47;;;;;;;17.50;10.93;;;;;;;;;;4957369;28;20058;-59
2022/03/07 00:40:14;;;;;;;17.88;10.82;;;;;;;;;;4957862;28;20051;-60
2022/03/07 00:42:41;;;;;;;17.50;11.80;;;;;;;;;;4957742;28;20138;-60
2022/03/07 00:45:11;;;;;;;18.98;11.90;;;;;;;;;;4957410;28;20047;-60
2022/03/07 00:47:37;;;;;;;20.40;12.63;;;;;;;;;;4957337;28;20106;-60
2022/03/07 00:50:06;;;;;;;15.18;11.23;;;;;;;;;;4957553;28;20055;-60
2022/03/07 00:52:33;;;;;;;18.63;11.45;;;;;;;;;;4957661;28;20479;-59
2022/03/07 00:55:00;;;;;;;18.05;11.65;;;;;;;;;;4957228;28;20059;-60
2022/03/07 00:57:26;;;;;;;18.00;11.43;;;;;;;;;;4957458;28;20054;-60
2022/03/07 00:59:54;;;;;;;22.20;12.27;;;;;;;;;;4957314;28;20420;-59
2022/03/07 01:02:22;;;;;;;18.92;12.15;;;;;;;;;;4957431;28;20146;-60
2022/03/07 01:04:50;;;;;;;18.50;11.95;;;;;;;;;;4957414;28;20058;-60
2022/03/07 01:07:17;;;;;;;19.67;12.88;;;;;;;;;;4957529;28;20059;-60
2022/03/07 01:09:44;;;;;;;19.30;12.18;;;;;;;;;;4957136;28;20063;-60
2022/03/07 01:12:12;;;;;;;20.38;12.45;;;;;;;;;;4957037;28;20521;-60
2022/03/07 01:14:39;;;;;;;19.52;12.98;;;;;;;;;;4957214;28;20056;-59
2022/03/07 01:17:06;;;;;;;19.27;13.45;;;;;;;;;;4957044;28;20058;-60
2022/03/07 01:19:34;;;;;;;20.50;13.25;;;;;;;;;;4956811;28;20051;-59
2022/03/07 01:22:01;;;;;;;23.25;13.73;;;;;;;;;;4957096;28;20485;-59
2022/03/07 01:24:30;;;;;;;20.80;13.32;;;;;;;;;;4957202;28;20138;-60
2022/03/07 01:26:57;;;;;;;19.02;12.18;;;;;;;;;;4956933;28;20157;-60
2022/03/07 01:29:24;;;;;;;26.38;14.80;;;;;;;;;;4956697;28;20061;-60
2022/03/07 01:31:51;;;;;;;24.13;14.43;;;;;;;;;;4956966;28;20062;-59
2022/03/07 01:34:18;;;;;;;21.13;14.05;;;;;;;;;;4956753;28;20106;-60
2022/03/07 01:36:46;;;;;;;22.60;12.73;;;;;;;;;;4956690;28;20055;-60
2022/03/07 01:39:13;;;;;;;23.17;13.68;;;;;;;;;;4957188;28;20058;-61
2022/03/07 01:41:40;;;;;;;20.38;14.02;;;;;;;;;;4957202;28;20066;-59
2022/03/07 01:44:17;;;;;;;22.48;13.80;;;;;;;;;;4956740;28;20051;-60
2022/03/07 01:46:44;;;;;;;24.88;14.40;;;;;;;;;;4956468;28;20047;-58
2022/03/07 01:49:11;;;;;;;21.73;14.63;;;;;;;;;;4956760;28;20054;-55
2022/03/07 01:51:39;;;;;;;24.52;14.05;;;;;;;;;;4956501;28;20051;-60
2022/03/07 01:54:09;;;;;;;22.60;14.23;;;;;;;;;;4956950;28;20496;-61
2022/03/07 01:56:36;;;;;;;26.38;14.68;;;;;;;;;;4956812;28;20059;-60
2022/03/07 01:59:03;;;;;;;25.20;14.27;;;;;;;;;;4956316;28;20051;-59
2022/03/07 02:01:30;;;;;;;23.38;14.30;;;;;;;;;;4956348;28;20088;-60
2022/03/07 02:03:57;;;;;;;20.77;12.77;;;;;;;;;;4972970;23;20138;-75
2022/03/07 02:06:25;;;;;;;22.10;14.77;;;;;;;;;;4975720;28;20418;-75
2022/03/07 02:08:53;;;;;;;21.67;13.30;;;;;;;;;;4975448;28;20496;-75
2022/03/07 02:11:22;;;;;;;21.25;13.85;;;;;;;;;;4975624;28;20110;-75
2022/03/07 02:13:49;;;;;;;24.40;15.07;;;;;;;;;;4975592;28;20061;-75
2022/03/07 02:16:17;;;;;;;22.48;13.98;;;;;;;;;;4975571;28;20050;-76
2022/03/07 02:18:44;;;;;;;23.75;14.63;;;;;;;;;;4975569;28;20101;-75
2022/03/07 02:21:14;;;;;;;25.70;13.98;;;;;;;;;;4975552;28;20054;-75
2022/03/07 02:23:43;;;;;;;21.08;13.30;;;;;;;;;;4975701;28;20523;-75
2022/03/07 02:26:11;;;;;;;22.45;13.63;;;;;;;;;;4975787;28;20049;-75
2022/03/07 02:28:42;;;;;;;22.02;13.30;;;;;;;;;;4975413;28;20050;-76
2022/03/07 02:31:09;;;;;;;19.77;13.27;;;;;;;;;;4975868;28;20522;-76
2022/03/07 02:33:37;;;;;;;21.13;13.52;;;;;;;;;;4975528;28;20054;-76
2022/03/07 02:36:05;;;;;;;20.48;11.50;;;;;;;;;;4975191;28;20055;-75
2022/03/07 02:38:32;;;;;;;19.00;13.00;;;;;;;;;;4975298;28;20047;-76
2022/03/07 02:41:00;;;;;;;18.88;11.50;;;;;;;;;;4975118;28;20507;-76
2022/03/07 02:43:27;;;;;;;20.52;12.00;;;;;;;;;;4974959;28;20074;-76
2022/03/07 02:45:58;;;;;;;18.45;10.95;;;;;;;;;;4974929;28;20054;-77
2022/03/07 02:48:25;;;;;;;18.08;11.45;;;;;;;;;;4974955;28;20050;-76
2022/03/07 02:50:52;;;;;;;19.55;11.13;;;;;;;;;;4975014;28;20053;-75
2022/03/07 02:53:19;;;;;;;16.50;11.02;;;;;;;;;;4974874;28;20507;-76
2022/03/07 02:55:46;;;;;;;18.45;11.02;;;;;;;;;;4975242;28;20090;-77
2022/03/07 02:58:15;;;;;;;17.15;10.32;;;;;;;;;;4974579;28;20061;-75
2022/03/07 03:00:41;;;;;;;16.92;10.23;;;;;;;;;;4974880;28;20516;-77
2022/03/07 03:03:09;;;;;;;14.48;8.95;;;;;;;;;;4974825;28;20047;-76
2022/03/07 03:05:36;;;;;;;16.10;10.48;;;;;;;;;;4974452;28;20138;-76
2022/03/07 03:08:03;;;;;;;16.00;9.45;;;;;;;;;;4974863;28;20772;-76
2022/03/07 03:10:30;;;;;;;15.65;8.98;;;;;;;;;;4974450;28;20101;-76
2022/03/07 03:12:56;;;;;;;16.80;9.63;;;;;;;;;;4974531;28;20131;-76
2022/03/07 03:15:25;;;;;;;16.13;9.80;;;;;;;;;;4974506;28;20046;-76
2022/03/07 03:17:52;;;;;;;15.02;8.85;;;;;;;;;;4974562;28;20047;-76
2022/03/07 03:20:19;;;;;;;14.73;8.60;;;;;;;;;;4974315;28;20480;-76
2022/03/07 03:22:46;;;;;;;16.65;9.50;;;;;;;;;;4974487;28;20488;-75
2022/03/07 03:25:15;;;;;;;15.65;9.15;;;;;;;;;;4974377;28;20121;-76
2022/03/07 03:27:43;;;;;;;15.68;9.27;;;;;;;;;;4974045;28;20055;-77
2022/03/07 03:30:13;;;;;;;17.40;9.77;;;;;;;;;;4974427;28;20411;-76
2022/03/07 03:32:41;;;;;;;14.88;9.30;;;;;;;;;;4974210;28;20357;-76
2022/03/07 03:35:08;;;;;;;13.85;9.02;;;;;;;;;;4974078;28;20544;-76
2022/03/07 03:37:36;;;;;;;14.23;8.88;;;;;;;;;;4973932;28;20050;-76
2022/03/07 03:40:04;;;;;;;16.67;9.85;;;;;;;;;;4973830;28;20059;-77
2022/03/07 03:42:31;;;;;;;14.75;8.15;;;;;;;;;;4973942;28;20530;-75
2022/03/07 03:44:58;;;;;;;16.42;9.18;;;;;;;;;;4973769;28;20050;-76
2022/03/07 03:47:25;;;;;;;15.02;9.13;;;;;;;;;;4973785;28;20065;-76
2022/03/07 03:49:53;;;;;;;12.73;8.68;;;;;;;;;;4973863;28;20051;-77
2022/03/07 03:52:20;;;;;;;15.70;8.82;;;;;;;;;;4975106;28;20514;-77
2022/03/07 03:54:47;;;;;;;14.70;8.95;;;;;;;;;;4974596;28;20055;-76
2022/03/07 03:57:14;;;;;;;15.30;9.02;;;;;;;;;;4975264;28;20055;-77
2022/03/07 03:59:41;;;;;;;14.43;8.90;;;;;;;;;;4974669;28;20056;-76
2022/03/07 04:02:08;;;;;;;14.65;9.38;;;;;;;;;;4974577;28;20055;-77
2022/03/07 04:04:35;;;;;;;14.07;8.80;;;;;;;;;;4973881;28;20495;-74
2022/03/07 04:07:04;;;;;;;15.13;9.57;;;;;;;;;;4974306;28;20061;-76
2022/03/07 04:09:31;;;;;;;14.63;8.70;;;;;;;;;;4973515;28;20046;-77
2022/03/07 04:11:58;;;;;;;19.38;9.57;;;;;;;;;;4974583;28;20051;-76
2022/03/07 04:14:25;;;;;;;14.88;8.73;;;;;;;;;;4974653;28;20511;-77
2022/03/07 04:16:52;;;;;;;15.55;9.20;;;;;;;;;;4974437;28;20054;-76
2022/03/07 04:19:19;;;;;;;14.48;9.57;;;;;;;;;;4974235;28;20439;-76
2022/03/07 04:21:46;;;;;;;13.48;8.75;;;;;;;;;;4974486;28;20051;-75
2022/03/07 04:24:15;;;;;;;14.55;9.10;;;;;;;;;;4974020;28;20059;-76
2022/03/07 04:26:43;;;;;;;15.75;9.18;;;;;;;;;;4974479;28;20050;-75
2022/03/07 04:29:10;;;;;;;16.52;9.20;;;;;;;;;;4973772;28;20055;-75
2022/03/07 04:31:39;;;;;;;14.77;9.38;;;;;;;;;;4973707;28;20050;-76
2022/03/07 04:34:07;;;;;;;15.88;10.25;;;;;;;;;;4973802;28;20054;-76
2022/03/07 04:36:35;;;;;;;15.75;9.07;;;;;;;;;;4973577;28;20046;-75
2022/03/07 04:39:02;;;;;;;15.45;9.38;;;;;;;;;;4973865;28;20061;-77
2022/03/07 04:41:31;;;;;;;15.02;9.25;;;;;;;;;;4973897;28;20476;-76
2022/03/07 04:43:58;;;;;;;15.23;8.80;;;;;;;;;;4974137;28;20117;-76
2022/03/07 04:46:25;;;;;;;19.38;10.75;;;;;;;;;;4974100;28;20484;-76
2022/03/07 04:48:52;;;;;;;15.73;9.38;;;;;;;;;;4974133;28;20399;-77
2022/03/07 04:51:19;;;;;;;17.73;9.27;;;;;;;;;;4973697;28;20051;-75
2022/03/07 04:53:46;;;;;;;14.60;9.45;;;;;;;;;;4973564;28;20062;-76
2022/03/07 04:56:13;;;;;;;17.25;9.65;;;;;;;;;;4973901;28;20057;-76
2022/03/07 04:58:41;;;;;;;15.00;8.82;;;;;;;;;;4974259;28;20476;-76
2022/03/07 05:01:09;;;;;;;13.85;8.80;;;;;;;;;;4973250;28;20050;-76
2022/03/07 05:03:36;;;;;;;16.67;8.98;;;;;;;;;;4972984;28;20055;-76
2022/03/07 05:06:04;;;;;;;15.05;9.93;;;;;;;;;;4973400;28;20061;-76
2022/03/07 05:08:31;;;;;;;15.15;9.32;;;;;;;;;;4973507;28;20440;-75
2022/03/07 05:10:58;;;;;;;17.38;10.65;;;;;;;;;;4974075;28;20051;-75
2022/03/07 05:13:25;;;;;;;15.20;9.27;;;;;;;;;;4973409;28;20051;-76
2022/03/07 05:15:53;;;;;;;14.95;9.30;;;;;;;;;;4972940;28;20415;-76
2022/03/07 05:18:20;;;;;;;15.32;9.45;;;;;;;;;;4973310;28;20420;-75
2022/03/07 05:20:47;;;;;;;15.52;9.45;;;;;;;;;;4973583;28;20137;-75
2022/03/07 05:23:14;;;;;;;17.15;9.30;;;;;;;;;;4977038;28;20054;-76
2022/03/07 05:25:41;;;;;;;15.38;9.77;;;;;;;;;;4976877;28;20057;-75
2022/03/07 05:28:08;;;;;;;15.65;9.23;;;;;;;;;;4976671;28;20130;-75
2022/03/07 05:30:35;;;;;;;16.08;9.43;;;;;;;;;;4977278;28;20058;-75
2022/03/07 05:33:04;;;;;;;16.10;9.20;;;;;;;;;;4976377;28;20480;-75
2022/03/07 05:35:31;;;;;;;14.45;9.25;;;;;;;;;;4976195;28;20050;-75
2022/03/07 05:37:58;;;;;;;20.75;10.57;;;;;;;;;;4977342;28;20408;-75
2022/03/07 05:40:25;;;;;;;17.27;10.63;;;;;;;;;;4976310;28;20054;-75
2022/03/07 05:42:54;;;;;;;16.25;9.75;;;;;;;;;;4976572;28;20054;-76
2022/03/07 05:45:21;;;;;;;15.07;9.32;;;;;;;;;;4976616;28;20086;-75
2022/03/07 05:47:48;;;;;;;14.88;9.45;;;;;;;;;;4976264;28;20054;-76
2022/03/07 05:50:16;;;;;;;16.58;10.20;;;;;;;;;;4975869;28;20055;-76
2022/03/07 05:52:43;;;;;;;15.82;9.73;;;;;;;;;;4975744;28;20050;-76
2022/03/07 05:55:11;;;;;;;15.95;9.93;;;;;;;;;;4976383;28;20130;-76
2022/03/07 05:57:38;;;;;;;15.95;9.80;;;;;;;;;;4976176;28;20051;-76
2022/03/07 06:00:07;;;;;;;17.00;10.35;;;;;;;;;;4975976;28;20051;-76
2022/03/07 06:02:34;;;;;;;17.45;10.23;;;;;;;;;;4975690;28;20057;-76
2022/03/07 06:05:01;;;;;;;17.05;10.88;;;;;;;;;;4976216;28;20062;-76
2022/03/07 06:07:29;;;;;;;17.15;9.82;;;;;;;;;;4975718;28;20053;-76
2022/03/07 06:09:56;;;;;;;16.20;9.82;;;;;;;;;;4975883;28;20419;-76
2022/03/07 06:12:26;;;;;;;18.88;10.93;;;;;;;;;;4975794;28;20389;-76
2022/03/07 06:14:53;;;;;;;16.95;10.02;;;;;;;;;;4976605;28;20051;-76
2022/03/07 06:17:21;;;;;;;21.00;10.82;;;;;;;;;;4976464;28;20054;-76
2022/03/07 06:19:48;;;;;;;17.58;10.55;;;;;;;;;;4976163;28;20500;-76
2022/03/07 06:22:15;;;;;;;16.42;10.02;;;;;;;;;;4976041;28;20050;-75
2022/03/07 06:24:43;;;;;;;19.05;10.40;;;;;;;;;;4976595;28;20058;-76
2022/03/07 06:27:11;;;;;;;16.42;10.02;;;;;;;;;;4976012;28;20431;-74
2022/03/07 06:29:38;;;;;;;18.83;10.38;;;;;;;;;;4975165;28;20051;-76
2022/03/07 06:32:05;;;;;;;16.30;9.82;;;;;;;;;;4974985;28;20496;-75
2022/03/07 06:34:33;;;;;;;18.60;11.35;;;;;;;;;;4975551;28;20416;-76
2022/03/07 06:37:01;;;;;;;18.95;10.73;;;;;;;;;;4975843;28;20050;-76
2022/03/07 06:39:28;;;;;;;17.73;11.00;;;;;;;;;;4975223;28;20057;-76
2022/03/07 06:41:57;;;;;;;19.70;11.30;;;;;;;;;;4975136;28;20436;-75
2022/03/07 06:44:24;;;;;;;18.58;10.32;;;;;;;;;;4975018;28;20065;-76
2022/03/07 06:46:51;;;;;;;19.75;10.52;;;;;;;;;;4975185;28;20050;-76
2022/03/07 06:49:18;;;;;;;17.45;10.43;;;;;;;;;;4974820;28;20077;-77
2022/03/07 06:51:45;;;;;;;20.67;11.52;;;;;;;;;;4974988;28;20050;-77
2022/03/07 06:54:12;;;;;;;21.38;11.48;;;;;;;;;;4974893;28;20062;-77
2022/03/07 06:56:39;;;;;;;17.75;11.40;;;;;;;;;;4974970;28;20477;-77
2022/03/07 06:59:07;;;;;;;19.00;11.55;;;;;;;;;;4974670;28;20448;-76
2022/03/07 07:01:34;;;;;;;21.60;10.90;;;;;;;;;;4974936;28;20058;-75
2022/03/07 07:04:01;;;;;;;20.33;11.82;;;;;;;;;;4974792;28;20047;-77
2022/03/07 07:06:28;;;;;;;21.38;11.50;;;;;;;;;;4975085;28;20051;-77
2022/03/07 07:08:55;;;;;;;19.52;11.98;;;;;;;;;;4974499;28;20054;-77
2022/03/07 07:11:22;;;;;;;22.95;12.73;;;;;;;;;;4974429;28;20136;-76
2022/03/07 07:13:49;;;;;;;19.52;11.57;;;;;;;;;;4974454;28;20047;-74
2022/03/07 07:16:18;;;;;;;22.45;12.88;;;;;;;;;;4974597;28;20065;-74
2022/03/07 07:18:44;;;;;;;22.98;12.50;;;;;;;;;;4974120;28;20050;-74
2022/03/07 07:21:11;;;;;;;19.25;11.85;;;;;;;;;;4974065;28;20058;-75
2022/03/07 07:23:39;;;;;;;22.45;11.30;;;;;;;;;;4974200;28;20046;-74
2022/03/07 07:26:06;;;;;;;22.27;12.48;;;;;;;;;;4974295;28;20050;-75
2022/03/07 07:28:34;;;;;;;23.00;12.95;;;;;;;;;;4974159;28;20055;-75
2022/03/07 07:31:01;;;;;;;24.17;12.02;;;;;;;;;;4974372;28;20101;-74
2022/03/07 07:33:29;;;;;;;20.15;11.38;;;;;;;;;;4974216;28;20054;-75
2022/03/07 07:35:56;;;;;;;20.85;12.60;;;;;;;;;;4974852;28;20146;-74
2022/03/07 07:38:23;;;;;;;21.35;12.63;;;;;;;;;;4974289;28;20416;-74
2022/03/07 07:40:50;;;;;;;21.02;12.88;;;;;;;;;;4974935;28;20061;-75
2022/03/07 07:43:18;;;;;;;22.80;12.32;;;;;;;;;;4974424;28;20475;-73
2022/03/07 07:45:45;;;;;;;20.77;12.57;;;;;;;;;;4974037;28;20051;-75
2022/03/07 07:48:12;;;;;;;23.05;12.50;;;;;;;;;;4973970;28;20058;-75
2022/03/07 07:50:40;;;;;;;26.85;12.70;;;;;;;;;;4973808;28;20055;-75
2022/03/07 07:53:07;;;;;;;20.65;12.18;;;;;;;;;;4974336;28;20484;-75
2022/03/07 07:55:34;;;;;;;21.65;12.73;;;;;;;;;;4973893;28;20046;-75
2022/03/07 07:58:01;;;;;;;25.00;13.07;;;;;;;;;;4973335;28;20042;-75
2022/03/07 08:00:28;;;;;;;24.02;13.05;;;;;;;;;;4973653;28;20153;-75
2022/03/07 08:02:55;;;;;;;22.40;13.23;;;;;;;;;;4973627;28;20046;-75
2022/03/07 08:05:22;;;;;;;27.33;14.50;;;;;;;;;;4972161;23;20043;-65
2022/03/07 08:07:51;;;;;;;24.42;14.10;;;;;;;;;;4953710;28;20083;-65
2022/03/07 08:10:18;;;;;;;26.98;14.35;;;;;;;;;;4954119;28;20051;-65
2022/03/07 08:12:46;;;;;;;22.50;12.75;;;;;;;;;;4954177;28;20556;-65
2022/03/07 08:15:13;;;;;;;25.35;14.13;;;;;;;;;;4954565;28;20496;-65
2022/03/07 08:17:44;;;;;;;24.90;14.60;;;;;;;;;;4954020;28;20131;-63
2022/03/07 08:20:12;;;;;;;25.27;14.90;;;;;;;;;;4951877;28;20047;-63
2022/03/07 08:22:39;;;;;;;23.80;14.18;;;;;;;;;;4952786;28;20604;-66
2022/03/07 08:25:08;;;;;;;30.63;15.32;;;;;;;;;;4952469;29;20130;-65
2022/03/07 08:27:35;;;;;;;26.38;14.02;;;;;;;;;;4952056;28;20065;-65
2022/03/07 08:30:03;;;;;;;22.73;14.30;;;;;;;;;;4953581;28;20134;-65
2022/03/07 08:32:33;;;;;;;24.98;14.85;;;;;;;;;;4953166;28;20048;-65
2022/03/07 08:35:00;;;;;;;24.25;13.25;;;;;;;;;;4953011;28;20392;-65
2022/03/07 08:37:28;;;;;;;29.27;15.10;;;;;;;;;;4953322;29;20055;-65
2022/03/07 08:39:55;;;;;;;25.50;14.20;;;;;;;;;;4952847;29;20511;-65
2022/03/07 08:42:23;;;;;;;27.90;14.07;;;;;;;;;;4952287;29;20555;-65
2022/03/07 08:44:52;;;;;;;29.60;14.13;;;;;;;;;;4952602;29;20090;-64
2022/03/07 08:47:19;;;;;;;30.67;15.23;;;;;;;;;;4952152;29;20576;-65
2022/03/07 08:49:46;;;;;;;27.70;14.48;;;;;;;;;;4951779;29;20051;-65
2022/03/07 08:52:15;;;;;;;27.15;15.40;;;;;;;;;;4951690;29;20047;-65
2022/03/07 08:54:42;;;;;;;29.48;16.15;;;;;;;;;;4951628;29;20058;-65
2022/03/07 08:57:09;;;;;;;28.55;15.20;;;;;;;;;;4954389;28;20516;-65
2022/03/07 08:59:38;;;;;;;26.00;14.73;;;;;;;;;;4955380;28;20055;-65
2022/03/07 09:02:05;;;;;;;24.75;14.27;;;;;;;;;;4955799;29;20130;-64
2022/03/07 09:04:33;;;;;;;29.15;15.60;;;;;;;;;;4955580;28;20163;-65
2022/03/07 09:07:00;;;;;;;28.70;14.00;;;;;;;;;;4955375;29;20493;-64
2022/03/07 09:09:28;;;;;;;24.77;15.00;;;;;;;;;;4955569;29;20142;-64
2022/03/07 09:11:55;;;;;;;27.45;14.30;;;;;;;;;;4955048;28;20138;-66
2022/03/07 09:14:22;;;;;;;28.58;15.00;;;;;;;;;;4955295;28;20051;-65
2022/03/07 09:16:50;;;;;;;28.13;14.57;;;;;;;;;;4955371;29;20047;-65
2022/03/07 09:19:17;;;;;;;27.08;14.07;;;;;;;;;;4955216;28;20415;-63
2022/03/07 09:21:45;;;;;;;25.70;14.43;;;;;;;;;;4955062;28;20098;-64
2022/03/07 09:24:12;;;;;;;27.35;14.32;;;;;;;;;;4955372;29;20043;-65
2022/03/07 09:26:39;;;;;;;32.00;17.45;;;;;;;;;;4954941;28;20051;-65
2022/03/07 09:29:06;;;;;;;29.63;16.98;;;;;;;;;;4955130;29;20047;-65
2022/03/07 09:31:33;;;;;;;29.45;15.52;;;;;;;;;;4955143;29;20051;-66
2022/03/07 09:34:01;;;;;;;31.42;15.77;;;;;;;;;;4954987;28;20126;-64
2022/03/07 09:36:28;;;;;;;25.40;14.52;;;;;;;;;;4954821;28;20055;-64
2022/03/07 09:38:58;;;;;;;29.60;15.82;;;;;;;;;;4955128;29;20047;-65
2022/03/07 09:41:27;;;;;;;30.55;16.02;;;;;;;;;;4954717;28;20058;-65
2022/03/07 09:43:54;;;;;;;31.02;16.00;;;;;;;;;;4954759;28;20505;-65
2022/03/07 09:46:21;;;;;;;31.67;16.92;;;;;;;;;;4954988;29;20082;-64
2022/03/07 09:48:48;;;;;;;28.40;15.45;;;;;;;;;;4954329;29;20138;-64
2022/03/07 09:51:16;;;;;;;26.95;16.05;;;;;;;;;;4954769;29;20515;-64
2022/03/07 09:53:43;;;;;;;26.63;15.48;;;;;;;;;;4954391;29;20123;-64
2022/03/07 09:56:10;;;;;;;29.05;16.33;;;;;;;;;;4954782;29;20467;-65
2022/03/07 09:58:37;;;;;;;27.70;16.40;;;;;;;;;;4954488;28;20110;-67
2022/03/07 10:01:07;;;;;;;28.23;16.70;;;;;;;;;;4954367;29;20150;-67
2022/03/07 10:03:34;;;;;;;28.08;16.42;;;;;;;;;;4954216;28;20052;-67
2022/03/07 10:06:01;;;;;;;26.95;14.57;;;;;;;;;;4954210;28;20141;-66
2022/03/07 10:08:30;;;;;;;28.98;16.33;;;;;;;;;;4954183;28;20127;-65
2022/03/07 10:10:58;;;;;;;28.98;16.55;;;;;;;;;;4954063;29;20614;-65
2022/03/07 10:13:26;;;;;;;29.58;17.08;;;;;;;;;;4953870;28;20585;-65
2022/03/07 10:15:59;;;;;;;32.60;16.88;;;;;;;;;;4953962;29;20055;-64
2022/03/07 10:18:26;;;;;;;27.65;15.40;;;;;;;;;;4953865;29;20051;-65
2022/03/07 10:20:55;;;;;;;35.65;18.60;;;;;;;;;;4954431;29;20184;-64
2022/03/07 10:23:25;;;;;;;30.50;17.08;;;;;;;;;;4954135;29;20493;-65
2022/03/07 10:25:54;;;;;;;31.70;16.35;;;;;;;;;;4953669;29;20051;-65
2022/03/07 10:28:21;;;;;;;28.65;16.00;;;;;;;;;;4954005;28;20044;-64
2022/03/07 10:30:49;;;;;;;29.42;16.90;;;;;;;;;;4953881;29;20057;-65
2022/03/07 10:33:16;;;;;;;29.40;15.73;;;;;;;;;;4953979;29;20517;-65
2022/03/07 10:35:45;;;;;;;31.35;16.65;;;;;;;;;;4953512;29;20051;-69
2022/03/07 10:38:13;;;;;;;24.85;15.45;;;;;;;;;;4953821;28;20043;-66
2022/03/07 10:40:44;;;;;;;28.40;16.25;;;;;;;;;;4953805;29;20052;-65
2022/03/07 10:43:12;;;;;;;32.20;17.60;;;;;;;;;;4953751;29;20049;-64
2022/03/07 10:45:47;;;;;;;28.45;16.38;;;;;;;;;;4953522;28;20742;-65
2022/03/07 10:48:15;;;;;;;27.92;16.20;;;;;;;;;;4953741;29;20055;-65
2022/03/07 10:50:48;;;;;;;26.90;16.67;;;;;;;;;;4953287;29;20051;-64
2022/03/07 10:53:15;;;;;;;32.05;17.25;;;;;;;;;;4953824;29;20123;-64
2022/03/07 10:55:42;;;;;;;31.33;17.15;;;;;;;;;;4953246;28;20055;-64
2022/03/07 10:58:11;;;;;;;31.63;16.83;;;;;;;;;;4953483;29;20051;-65
2022/03/07 11:00:50;;;;;;;28.48;16.15;;;;;;;;;;4953283;28;20043;-65
2022/03/07 11:03:19;;;;;;;28.70;15.27;;;;;;;;;;4953356;29;20059;-65
2022/03/07 11:05:46;;;;;;;30.23;16.42;;;;;;;;;;4952879;28;20070;-66
2022/03/07 11:08:15;;;;;;;30.73;16.10;;;;;;;;;;4952800;29;20052;-66
2022/03/07 11:10:46;;;;;;;29.65;16.80;;;;;;;;;;4952832;28;20055;-64
2022/03/07 11:13:14;;;;;;;30.58;17.17;;;;;;;;;;4953650;29;20138;-65
2022/03/07 11:15:42;;;;;;;27.33;15.95;;;;;;;;;;4953115;28;20047;-66
2022/03/07 11:18:12;;;;;;;30.77;17.83;;;;;;;;;;4953311;28;20051;-66
2022/03/07 11:20:41;;;;;;;35.17;18.37;;;;;;;;;;4952787;29;20450;-66
2022/03/07 11:23:09;;;;;;;30.90;17.38;;;;;;;;;;4952775;29;20051;-65
2022/03/07 11:25:37;;;;;;;28.58;16.92;;;;;;;;;;4952754;29;20051;-65
2022/03/07 11:28:05;;;;;;;33.50;17.45;;;;;;;;;;4953040;29;20409;-64
2022/03/07 11:30:36;;;;;;;30.83;17.80;;;;;;;;;;4952738;29;20073;-66
2022/03/07 11:33:12;;;;;;;27.50;17.20;;;;;;;;;;4952671;29;20059;-65
2022/03/07 11:35:42;;;;;;;29.25;16.83;;;;;;;;;;4952465;28;20134;-65
2022/03/07 11:38:17;;;;;;;29.67;16.73;;;;;;;;;;4953195;29;20134;-65
2022/03/07 11:40:59;;;;;;;32.03;16.98;;;;;;;;;;4952800;28;20051;-65
2022/03/07 11:43:27;;;;;;;33.60;17.60;;;;;;;;;;4952911;29;20138;-64
2022/03/07 11:45:55;;;;;;;33.13;17.25;;;;;;;;;;4952384;28;20160;-65
2022/03/07 11:48:24;;;;;;;29.42;17.70;;;;;;;;;;4952515;29;20049;-65
2022/03/07 11:50:51;;;;;;;30.48;17.60;;;;;;;;;;4952289;29;20043;-65
2022/03/07 11:53:19;;;;;;;30.88;17.42;;;;;;;;;;4952437;28;20054;-65
2022/03/07 11:55:48;;;;;;;30.92;18.55;;;;;;;;;;4953157;28;20559;-68
2022/03/07 11:58:27;;;;;;;30.00;17.13;;;;;;;;;;4952912;28;20572;-66
2022/03/07 12:01:04;;;;;;;32.97;19.48;;;;;;;;;;4953181;29;20046;-65
2022/03/07 12:03:35;;;;;;;33.50;17.83;;;;;;;;;;4952808;29;20174;-65
2022/03/07 12:06:05;;;;;;;32.35;18.33;;;;;;;;;;4953467;28;20135;-65
2022/03/07 12:08:43;;;;;;;32.40;17.20;;;;;;;;;;4952234;28;20066;-65
2022/03/07 12:11:10;;;;;;;28.92;17.55;;;;;;;;;;4952414;29;20155;-66
2022/03/07 12:13:48;;;;;;;30.92;17.92;;;;;;;;;;4952423;29;20106;-65
2022/03/07 12:16:25;;;;;;;31.88;17.65;;;;;;;;;;4952181;29;20047;-67
2022/03/07 12:18:56;;;;;;;30.20;17.20;;;;;;;;;;4952044;29;20043;-65
2022/03/07 12:21:26;;;;;;;33.42;18.25;;;;;;;;;;4952195;28;20416;-65
2022/03/07 12:23:56;;;;;;;28.88;17.08;;;;;;;;;;4952167;29;20394;-65
2022/03/07 12:26:23;;;;;;;29.42;17.17;;;;;;;;;;4952044;29;20085;-65
2022/03/07 12:28:50;;;;;;;28.13;17.90;;;;;;;;;;4952306;29;20465;-64
2022/03/07 12:31:18;;;;;;;31.25;17.40;;;;;;;;;;4953440;28;20051;-64
2022/03/07 12:33:46;;;;;;;27.95;16.55;;;;;;;;;;4956483;28;20122;-66
2022/03/07 12:36:16;;;;;;;27.63;17.13;;;;;;;;;;4958799;28;20130;-65
2022/03/07 12:38:48;;;;;;;32.95;18.38;;;;;;;;;;4956173;28;20051;-65
2022/03/07 12:41:15;;;;;;;29.08;16.73;;;;;;;;;;4956079;29;20044;-65
2022/03/07 12:43:43;;;;;;;29.15;17.15;;;;;;;;;;4956545;28;20054;-65
2022/03/07 12:46:12;;;;;;;27.73;16.67;;;;;;;;;;4956228;28;20528;-65
2022/03/07 12:48:43;;;;;;;28.63;17.33;;;;;;;;;;4956255;29;20053;-65
2022/03/07 12:51:11;;;;;;;;;;;;;;;;;;4956204;29;20049;-65
2022/03/07 12:53:48;;;;;;;31.23;16.83;;;;;;;;;;4955731;29;19965;-65
2022/03/07 12:56:16;;;;;;;30.30;16.73;;;;;;;;;;4956008;29;20047;-65
2022/03/07 12:58:51;;;;;;;29.65;17.55;;;;;;;;;;4956024;29;20357;-65
2022/03/07 13:01:19;;;;;;;27.52;17.20;;;;;;;;;;4955903;28;20142;-64
2022/03/07 13:03:48;;;;;;;29.92;16.92;;;;;;;;;;4955511;29;20061;-66
2022/03/07 13:06:16;;;;;;;28.33;15.70;;;;;;;;;;4955675;28;20203;-65
2022/03/07 13:08:52;;;;;;;28.05;16.80;;;;;;;;;;4955706;28;20138;-66
2022/03/07 13:11:31;;;;;;;26.15;16.23;;;;;;;;;;4955464;29;20055;-65
2022/03/07 13:13:58;;;;;;;30.65;17.70;;;;;;;;;;4955507;29;20252;-65
2022/03/07 13:16:27;;;;;;;30.95;16.92;;;;;;;;;;4955725;29;20058;-66
2022/03/07 13:19:01;;;;;;;28.42;15.77;;;;;;;;;;4955521;29;20505;-64
2022/03/07 13:21:31;;;;;;;28.13;16.90;;;;;;;;;;4955745;29;20051;-65
2022/03/07 13:24:00;;;;;;;26.25;16.42;;;;;;;;;;4955462;28;20051;-64
2022/03/07 13:26:27;;;;;;;30.20;16.85;;;;;;;;;;4955133;29;20047;-64
2022/03/07 13:29:06;;;;;;;30.67;17.40;;;;;;;;;;4954883;29;20055;-65
2022/03/07 13:31:43;;;;;;;31.80;17.35;;;;;;;;;;4955152;28;20051;-65
2022/03/07 13:34:11;;;;;;;28.48;16.52;;;;;;;;;;4955088;28;20449;-64
2022/03/07 13:36:42;;;;;;;28.30;16.90;;;;;;;;;;4954903;28;20047;-65
2022/03/07 13:39:23;;;;;;;27.77;16.88;;;;;;;;;;4954883;28;20062;-65
2022/03/07 13:41:52;;;;;;;28.75;16.55;;;;;;;;;;4954879;28;20070;-66
2022/03/07 13:44:20;;;;;;;29.80;17.10;;;;;;;;;;4955822;29;20465;-66
2022/03/07 13:47:02;;;;;;;27.20;16.35;;;;;;;;;;4955131;28;20480;-65
2022/03/07 13:49:44;;;;;;;26.63;16.50;;;;;;;;;;4954832;28;20058;-65
2022/03/07 13:52:20;;;;;;;25.38;15.88;;;;;;;;;;4954940;28;20499;-66
2022/03/07 13:54:50;;;;;;;29.50;17.77;;;;;;;;;;4955043;29;20138;-67
2022/03/07 13:57:19;;;;;;;26.23;15.35;;;;;;;;;;4955050;29;20054;-65
2022/03/07 13:59:53;;;;;;;28.20;16.55;;;;;;;;;;4954705;28;20047;-66
2022/03/07 14:02:20;;;;;;;24.30;16.00;;;;;;;;;;4954371;29;20443;-66
2022/03/07 14:04:56;;;;;;;26.08;16.13;;;;;;;;;;4967793;23;20065;-57
2022/03/07 14:07:24;;;;;;;25.85;15.98;;;;;;;;;;4972615;28;20050;-59
2022/03/07 14:09:55;;;;;;;29.75;16.98;;;;;;;;;;4974057;28;20487;-57
2022/03/07 14:12:29;;;;;;;27.30;16.38;;;;;;;;;;4973626;28;20232;-59
2022/03/07 14:15:04;;;;;;;29.65;17.52;;;;;;;;;;4973912;28;20061;-60
2022/03/07 14:17:32;;;;;;;22.95;15.43;;;;;;;;;;4973732;28;20086;-59
2022/03/07 14:19:59;;;;;;;27.48;16.55;;;;;;;;;;4973796;28;20046;-60
2022/03/07 14:22:28;;;;;;;27.10;16.88;;;;;;;;;;4973378;28;20101;-60
2022/03/07 14:24:57;;;;;;;27.52;16.20;;;;;;;;;;4973835;28;20047;-59
2022/03/07 14:27:26;;;;;;;27.83;15.25;;;;;;;;;;4973342;28;20050;-57